Latest Weather Observations for Batchelor

IDD60901

Issued at 6:31 pm CST Monday 24 June 2019 (issued every 10 minutes, with the page automatically refreshed every 10 minutes)

About weather observations | Map of Darwin area stations | Latest observations for Darwin area | Other Formats
Station Details ID: 014272 Name: BATCHELOR AIRPORT Lat: -13.05 Lon: 131.03 Height: 104.0 m
Data from the previous 72 hours. | See also: Recent months at Batchelor
Date/Time
CST
Temp
°C
App
Temp
°C
Dew
Point
°C
Rel
Hum
%
Delta-T
°C
Wind Press
QNH
hPa
Press
MSL
hPa
Rain since
9am
mm
Dir  Spd
km/h
Gust
km/h
Spd
kts
Gust
kts
24/06:30pm 21.2 19.0 1.0 26 9.2 SE 2 2 1 1 1015.7 1015.2 0.0
24/06:00pm 25.0 22.0 -1.7 17 11.9 SE 4 6 2 3 1015.3 1014.8 0.0
24/05:30pm 28.0 24.2 -4.0 12 14.1 SE 7 9 4 5 1015.1 1014.6 0.0
24/05:00pm 28.9 24.6 -4.5 11 14.7 SE 9 13 5 7 1015.0 1014.5 0.0
24/04:30pm 29.1 24.7 -5.6 10 15.0 SE 9 15 5 8 1014.6 1014.1 0.0
24/04:00pm 29.5 24.4 -5.3 10 15.2 ESE 13 17 7 9 1014.7 1014.2 0.0
24/03:30pm 29.2 23.7 -5.5 10 15.0 SE 15 22 8 12 1014.7 1014.2 0.0
24/03:00pm 29.3 25.1 -4.2 11 14.8 ESE 9 22 5 12 1014.9 1014.4 0.0
24/02:30pm 28.8 22.9 -5.8 10 14.8 ESE 17 24 9 13 1015.2 1014.7 0.0
24/02:00pm 28.5 22.2 -6.0 10 14.7 SE 19 28 10 15 1015.3 1014.8 0.0
24/01:30pm 27.4 21.5 -5.6 11 14.0 SE 17 28 9 15 1015.8 1015.3 0.0
24/01:00pm 27.3 21.0 -5.7 11 14.0 ESE 19 28 10 15 1016.4 1015.9 0.0
24/12:30pm 26.7 20.3 -5.0 12 13.5 SE 20 30 11 16 1016.9 1016.4 0.0
24/12:00pm 25.9 20.1 -4.6 13 13.0 ESE 17 28 9 15 1017.2 1016.7 0.0
24/11:30am 25.2 19.1 -4.2 14 12.6 ESE 19 28 10 15 1017.6 1017.1 0.0
24/11:00am 24.2 18.5 -4.0 15 12.0 ESE 17 26 9 14 1017.9 1017.4 0.0
24/10:30am 22.7 16.8 -5.2 15 11.4 SE 17 22 9 12 1017.9 1017.4 0.0
24/10:00am 21.5 15.1 -4.5 17 10.7 SE 20 28 11 15 1018.1 1017.6 0.0
24/09:30am 20.7 13.9 -5.2 17 10.4 SE 22 32 12 17 1018.2 1017.7 0.0
24/09:00am 19.8 13.0 -5.2 18 10.0 SE 22 32 12 17 1018.1 1017.6 0.0
24/08:30am 18.9 12.7 -4.5 20 9.4 SE 19 26 10 14 1017.9 1017.4 0.0
24/08:00am 17.4 11.7 -3.9 23 8.5 SE 17 20 9 11 1017.6 1017.1 0.0
24/07:30am 14.9 9.6 -3.4 28 7.2 SE 15 17 8 9 1017.3 1016.8 0.0
24/07:00am 15.2 9.8 -4.2 26 7.5 SE 15 17 8 9 1017.0 1016.5 0.0
24/06:30am 14.9 10.0 -3.4 28 7.2 SE 13 17 7 9 1016.8 1016.3 0.0
24/06:00am 14.8 10.3 -3.5 28 7.2 SE 11 13 6 7 1016.3 1015.8 0.0
24/05:30am 15.9 11.4 -3.6 26 7.7 SE 11 13 6 7 1016.3 1015.8 0.0
24/05:00am 15.1 10.3 -2.3 30 7.0 SE 13 15 7 8 1016.0 1015.5 0.0
24/04:30am 14.9 10.5 -2.5 30 7.0 SE 11 11 6 6 1016.0 1015.5 0.0
24/04:00am 13.4 9.4 -2.1 34 6.2 SE 9 11 5 6 1015.9 1015.4 0.0
24/03:30am 14.6 10.3 -1.9 32 6.7 ESE 11 11 6 6 1015.7 1015.2 0.0
24/03:00am 16.1 12.5 -1.9 29 7.4 ESE 7 9 4 5 1015.7 1015.2 0.0
24/02:30am 17.3 13.3 -2.4 26 8.1 SE 9 11 5 6 1015.9 1015.4 0.0
24/02:00am 17.5 13.1 -2.2 26 8.2 SE 11 13 6 7 1016.0 1015.5 0.0
24/01:30am 17.8 13.5 -1.9 26 8.2 SE 11 13 6 7 1015.8 1015.3 0.0
24/01:00am 18.5 13.8 -1.9 25 8.6 SE 13 15 7 8 1015.7 1015.2 0.0
24/12:30am 18.8 14.6 -1.1 26 8.5 SE 11 13 6 7 1015.7 1015.2 0.0
24/12:00am 18.5 14.2 -1.3 26 8.4 SE 11 13 6 7 1015.7 1015.2 0.0
 
Date/Time
CST
Temp
°C
App
Temp
°C
Dew
Point
°C
Rel
Hum
%
Delta-T
°C
Wind Press
QNH
hPa
Press
MSL
hPa
Rain since
9am
mm
Dir  Spd
km/h
Gust
km/h
Spd
kts
Gust
kts
23/11:30pm 17.5 13.8 -0.2 30 7.6 SE 9 13 5 7 1015.7 1015.2 0.0
23/11:00pm 18.3 15.0 0.0 29 8.0 SE 7 9 4 5 1015.7 1015.2 0.0
23/10:30pm 19.8 16.4 -0.8 25 9.0 SSE 7 9 4 5 1015.5 1015.0 0.0
23/10:00pm 21.0 17.6 -0.3 24 9.5 SSE 7 11 4 6 1015.3 1014.8 0.0
23/09:30pm 19.5 16.5 1.9 31 8.1 SSE 7 11 4 6 1015.1 1014.6 0.0
23/09:00pm 16.4 14.5 4.8 46 5.5 SSE 4 6 2 3 1015.0 1014.5 0.0
23/08:30pm 16.5 14.6 4.9 46 5.5 SE 4 6 2 3 1014.8 1014.3 0.0
23/08:00pm 17.2 16.2 5.5 46 5.7 CALM 0 2 0 1 1014.5 1014.0 0.0
23/07:30pm 17.9 16.7 4.8 42 6.3 CALM 0 0 0 0 1014.1 1013.6 0.0
23/07:00pm 19.6 18.4 4.5 37 7.3 CALM 0 0 0 0 1013.6 1013.1 0.0
23/06:30pm 22.2 20.4 3.3 29 9.1 SSE 2 2 1 1 1013.2 1012.7 0.0
23/06:00pm 26.2 23.0 0.8 19 12.0 ESE 7 9 4 5 1012.9 1012.4 0.0
23/05:30pm 28.6 24.5 -0.5 15 13.7 SE 11 17 6 9 1012.5 1012.0 0.0
23/05:00pm 28.9 23.9 -1.2 14 14.0 SSE 15 24 8 13 1012.4 1011.9 0.0
23/04:30pm 29.2 24.7 -0.1 15 14.0 SE 13 20 7 11 1012.4 1011.9 0.0
23/04:00pm 29.3 24.2 0.9 16 13.8 ESE 17 24 9 13 1012.5 1012.0 0.0
23/03:30pm 29.0 24.5 -0.2 15 13.9 SE 13 22 7 12 1012.8 1012.3 0.0
23/03:00pm 28.7 23.7 1.3 17 13.3 SE 17 22 9 12 1013.0 1012.5 0.0
23/02:30pm 29.0 25.2 1.5 17 13.4 ESE 11 20 6 11 1013.4 1012.9 0.0
23/02:00pm 28.1 23.5 1.6 18 12.9 ESE 15 22 8 12 1013.8 1013.3 0.0
23/01:30pm 27.6 22.6 1.2 18 12.7 SE 17 24 9 13 1014.3 1013.8 0.0
23/01:00pm 26.8 21.5 2.0 20 12.0 SE 19 24 10 13 1014.8 1014.3 0.0
23/12:30pm 26.3 22.2 2.3 21 11.7 SE 13 24 7 13 1015.4 1014.9 0.0
23/12:00pm 25.0 20.0 1.2 21 11.2 ESE 17 24 9 13 1015.9 1015.4 0.0
23/11:30am 24.9 19.4 1.7 22 11.0 SE 20 32 11 17 1016.2 1015.7 0.0
23/11:00am 24.3 18.7 1.2 22 10.9 ESE 20 28 11 15 1016.3 1015.8 0.0
23/10:30am 22.8 17.2 1.2 24 10.0 ESE 20 28 11 15 1016.7 1016.2 0.0
23/10:00am 21.9 16.2 0.4 24 9.8 ESE 20 26 11 14 1016.8 1016.3 0.0
23/09:30am 20.9 15.1 0.2 25 9.3 ESE 20 33 11 18 1016.7 1016.2 0.0
23/09:00am 20.6 15.4 0.4 26 9.1 ESE 17 26 9 14 1016.6 1016.1 -
23/08:30am 19.4 14.2 -0.1 27 8.6 SE 17 24 9 13 1016.4 1015.9 -
23/08:00am 18.2 13.2 -1.1 27 8.2 SE 15 19 8 10 1016.2 1015.7 -
23/07:30am 16.6 12.0 -1.0 30 7.4 SE 13 19 7 10 1016.0 1015.5 -
23/07:00am 16.7 11.7 -0.9 30 7.4 SE 15 20 8 11 1015.8 1015.3 -
23/06:30am 16.4 11.5 -0.8 31 7.3 SE 15 19 8 10 1015.5 1015.0 -
23/06:00am 16.7 11.8 -0.5 31 7.3 SE 15 19 8 10 1015.4 1014.9 -
23/05:30am 17.3 12.4 -0.4 30 7.6 SE 15 20 8 11 1015.2 1014.7 -
23/05:00am 17.9 13.1 0.1 30 7.8 SE 15 20 8 11 1015.1 1014.6 -
23/04:30am 18.5 14.1 0.6 30 7.9 SE 13 19 7 10 1014.8 1014.3 -
23/04:00am 19.0 14.4 1.5 31 7.9 SE 15 20 8 11 1014.6 1014.1 -
23/03:30am 15.9 13.1 3.0 42 5.9 SE 7 9 4 5 1014.5 1014.0 -
23/03:00am 16.9 13.7 3.2 40 6.3 SE 9 11 5 6 1014.7 1014.2 -
23/02:30am 16.4 13.3 3.8 43 5.9 SE 9 11 5 6 1014.8 1014.3 -
23/02:00am 15.8 13.3 3.9 45 5.5 ESE 6 7 3 4 1014.9 1014.4 -
23/01:30am 16.4 13.7 3.8 43 5.9 SE 7 9 4 5 1014.9 1014.4 -
23/01:00am 17.1 14.5 4.1 42 6.1 SE 7 9 4 5 1015.0 1014.5 -
23/12:30am 15.6 13.4 5.5 51 4.8 SE 6 9 3 5 1014.9 1014.4 0.0
23/12:00am 14.9 13.2 6.0 55 4.3 SSE 4 6 2 3 1015.0 1014.5 0.0
 
Date/Time
CST
Temp
°C
App
Temp
°C
Dew
Point
°C
Rel
Hum
%
Delta-T
°C
Wind Press
QNH
hPa
Press
MSL
hPa
Rain since
9am
mm
Dir  Spd
km/h
Gust
km/h
Spd
kts
Gust
kts
22/11:30pm 14.8 13.5 6.1 56 4.2 SSE 2 2 1 1 1015.0 1014.5 0.0
22/11:00pm 14.9 14.0 6.0 55 4.3 CALM 0 0 0 0 1014.8 1014.3 0.0
22/10:30pm 15.8 14.2 6.5 54 4.6 SSE 4 4 2 2 1014.8 1014.3 0.0
22/10:00pm 15.2 13.3 6.7 57 4.2 SSE 6 6 3 3 1014.8 1014.3 0.0
22/09:30pm 15.5 14.0 6.8 56 4.3 SSE 4 6 2 3 1014.5 1014.0 0.0
22/09:00pm 16.0 14.5 7.0 55 4.5 SSE 4 6 2 3 1014.4 1013.9 0.0
22/08:30pm 16.4 15.0 7.1 54 4.6 SSE 4 4 2 2 1014.2 1013.7 0.0
22/08:00pm 17.5 16.2 5.8 46 5.7 SSE 2 2 1 1 1013.9 1013.4 0.0
22/07:30pm 19.3 17.6 5.7 41 6.7 SSE 4 6 2 3 1013.5 1013.0 0.0
22/07:00pm 21.4 18.9 4.0 32 8.4 SSE 6 7 3 4 1013.1 1012.6 0.0
22/06:30pm 23.9 21.4 3.8 27 9.9 SSE 6 7 3 4 1012.6 1012.2 0.0
22/06:00pm 26.7 23.7 3.9 23 11.5 SSE 9 15 5 8 1012.3 1011.8 0.0
22/05:30pm 27.8 25.1 3.5 21 12.2 SSE 7 15 4 8 1012.0 1011.5 0.0
22/05:00pm 28.6 25.5 3.5 20 12.7 SE 9 13 5 7 1011.8 1011.3 0.0
22/04:30pm 28.7 24.4 3.5 20 12.7 SE 15 19 8 10 1011.6 1011.1 0.0
22/04:00pm 29.1 25.8 4.6 21 12.6 SSE 11 20 6 11 1011.6 1011.1 0.0
22/03:30pm 28.6 24.9 4.2 21 12.5 ESE 13 19 7 10 1011.8 1011.3 0.0
22/03:00pm 28.7 25.6 5.5 23 12.1 SSE 11 19 6 10 1012.1 1011.6 0.0
22/02:30pm 28.4 26.3 6.5 25 11.6 SSE 7 15 4 8 1012.3 1011.8 0.0
22/02:00pm 27.8 24.2 6.6 26 11.2 SE 15 24 8 13 1012.6 1012.2 0.0
22/01:30pm 27.6 25.4 8.0 29 10.6 ESE 9 22 5 12 1013.4 1012.9 0.0
22/01:00pm 26.4 22.5 6.9 29 10.3 SE 17 26 9 14 1014.0 1013.5 0.0
22/12:30pm 26.6 22.8 7.6 30 10.2 SE 17 30 9 16 1014.6 1014.1 0.0
22/12:00pm 25.9 22.1 7.5 31 9.8 ESE 17 26 9 14 1015.1 1014.6 0.0
22/11:30am 25.4 21.2 7.5 32 9.5 ESE 19 28 10 15 1015.6 1015.1 0.0
22/11:00am 23.6 19.0 6.4 33 8.9 ESE 20 33 11 18 1016.1 1015.6 0.0
22/10:30am 23.4 18.8 6.7 34 8.6 ESE 20 32 11 17 1016.3 1015.8 0.0
22/10:00am 22.3 17.3 6.5 36 8.1 SE 22 32 12 17 1016.5 1016.0 0.0
22/09:30am 21.6 16.5 5.9 36 7.9 SE 22 33 12 18 1016.7 1016.2 0.0
22/09:00am 20.9 17.2 6.1 38 7.4 SE 15 22 8 12 1016.7 1016.2 0.0
22/08:30am 19.3 14.9 4.6 38 7.1 SE 17 22 9 12 1016.5 1016.0 0.0
22/08:00am 18.3 14.5 4.1 39 6.8 SE 13 20 7 11 1016.3 1015.8 0.0
22/07:30am 17.3 13.4 3.2 39 6.5 SE 13 17 7 9 1016.2 1015.7 0.0
22/07:00am 17.0 13.5 3.3 40 6.3 SE 11 17 6 9 1016.2 1015.7 0.0
22/06:30am 16.5 13.3 2.9 40 6.2 SE 9 11 5 6 1016.0 1015.5 0.0
22/06:00am 17.1 13.5 2.7 38 6.6 SE 11 15 6 8 1015.6 1015.1 0.0
22/05:30am 15.5 12.7 3.0 43 5.7 ESE 7 9 4 5 1015.6 1015.1 0.0
22/05:00am 16.9 13.1 1.8 36 6.8 SE 11 13 6 7 1015.5 1015.0 0.0
22/04:30am 16.9 13.5 1.8 36 6.8 SE 9 13 5 7 1015.3 1014.8 0.0
22/04:00am 17.6 14.2 1.6 34 7.2 SE 9 11 5 6 1015.0 1014.5 0.0
22/03:30am 18.4 14.5 1.0 31 7.8 SE 11 13 6 7 1015.0 1014.5 0.0
22/03:00am 18.9 15.0 1.4 31 7.9 ESE 11 13 6 7 1015.0 1014.5 0.0
22/02:30am 19.3 15.8 1.3 30 8.1 SE 9 13 5 7 1015.0 1014.5 0.0
22/02:00am 20.2 16.3 1.1 28 8.7 SE 11 17 6 9 1014.9 1014.4 0.0
22/01:30am 20.1 16.2 1.0 28 8.7 SE 11 15 6 8 1014.8 1014.3 0.0
22/01:00am 20.1 16.2 1.0 28 8.7 SE 11 15 6 8 1014.7 1014.2 0.0
22/12:30am 20.1 16.3 1.5 29 8.5 SE 11 13 6 7 1014.7 1014.2 0.0
22/12:00am 20.0 16.1 1.4 29 8.5 SE 11 13 6 7 1014.7 1014.2 0.0
 
Date/Time
CST
Temp
°C
App
Temp
°C
Dew
Point
°C
Rel
Hum
%
Delta-T
°C
Wind Press
QNH
hPa
Press
MSL
hPa
Rain since
9am
mm
Dir  Spd
km/h
Gust
km/h
Spd
kts
Gust
kts
21/11:30pm 18.6 15.3 2.4 34 7.5 SE 9 11 5 6 1014.9 1014.4 0.0
21/11:00pm 18.3 15.3 1.8 33 7.5 SE 7 9 4 5 1014.8 1014.3 0.0
21/10:30pm 20.8 17.4 2.1 29 8.7 SE 9 13 5 7 1014.8 1014.3 0.0
21/10:00pm 21.0 18.2 3.2 31 8.5 SE 7 11 4 6 1014.6 1014.1 0.0
21/09:30pm 19.0 16.9 5.8 42 6.5 SSE 6 9 3 5 1014.5 1014.0 0.0
21/09:00pm 16.4 14.6 7.1 54 4.6 SSE 6 7 3 4 1014.3 1013.8 0.0
21/08:30pm 16.4 15.4 7.3 55 4.6 SSE 2 4 1 2 1014.0 1013.5 0.0
21/08:00pm 18.5 17.7 6.7 46 5.9 CALM 0 0 0 0 1013.6 1013.1 0.0
21/07:30pm 18.9 18.1 6.7 45 6.1 CALM 0 0 0 0 1013.2 1012.7 0.0
21/07:00pm 20.3 19.3 5.5 38 7.3 CALM 0 0 0 0 1012.6 1012.2 0.0

Latest Capital City Observations: Canberra | Sydney | Melbourne | Brisbane | Adelaide | Perth | Hobart | Darwin

Other formats

Comma delimited format used in spreadsheet applications
http://www.bom.gov.au/fwo/IDD60901/IDD60901.94125.axf

JavaScript Object Notation format (JSON) in row-major order
http://www.bom.gov.au/fwo/IDD60901/IDD60901.94125.json

Data quality

Most of these data are generated automatically and are frequently updated. Quality checks on data are not normally performed. It is possible for incorrect values to appear. Refer to information at About Latest Weather Observations and please check the disclaimer before using these data.